sensor_id;sensor_type;location;lat;lon;timestamp;P1;durP1;ratioP1;P2;durP2;ratioP2
13457;SDS011;6801;53.018;11.560;2023-03-01T00:00:02;8.63;;;3.47;;
13457;SDS011;6801;53.018;11.560;2023-03-01T00:02:36;5.97;;;3.25;;
13457;SDS011;6801;53.018;11.560;2023-03-01T00:05:04;7.68;;;3.30;;
13457;SDS011;6801;53.018;11.560;2023-03-01T00:07:32;7.53;;;2.70;;
13457;SDS011;6801;53.018;11.560;2023-03-01T00:09:59;7.57;;;2.90;;
13457;SDS011;6801;53.018;11.560;2023-03-01T00:12:26;6.75;;;3.40;;
13457;SDS011;6801;53.018;11.560;2023-03-01T00:14:53;8.43;;;3.20;;
13457;SDS011;6801;53.018;11.560;2023-03-01T00:17:21;7.18;;;2.65;;
13457;SDS011;6801;53.018;11.560;2023-03-01T00:19:48;5.90;;;3.00;;
13457;SDS011;6801;53.018;11.560;2023-03-01T00:22:15;8.18;;;3.40;;
13457;SDS011;6801;53.018;11.560;2023-03-01T00:24:42;5.95;;;2.90;;
13457;SDS011;6801;53.018;11.560;2023-03-01T00:27:10;7.78;;;3.13;;
13457;SDS011;6801;53.018;11.560;2023-03-01T00:29:37;6.32;;;2.72;;
13457;SDS011;6801;53.018;11.560;2023-03-01T00:32:04;9.25;;;2.97;;
13457;SDS011;6801;53.018;11.560;2023-03-01T00:34:32;4.85;;;2.72;;
13457;SDS011;6801;53.018;11.560;2023-03-01T00:36:59;6.53;;;2.92;;
13457;SDS011;6801;53.018;11.560;2023-03-01T00:39:30;7.60;;;2.90;;
13457;SDS011;6801;53.018;11.560;2023-03-01T00:41:58;6.32;;;2.97;;
13457;SDS011;6801;53.018;11.560;2023-03-01T00:44:25;7.20;;;3.67;;
13457;SDS011;6801;53.018;11.560;2023-03-01T00:46:53;5.32;;;2.67;;
13457;SDS011;6801;53.018;11.560;2023-03-01T00:49:20;8.32;;;3.17;;
13457;SDS011;6801;53.018;11.560;2023-03-01T00:51:50;9.38;;;2.90;;
13457;SDS011;6801;53.018;11.560;2023-03-01T00:54:17;6.22;;;2.60;;
13457;SDS011;6801;53.018;11.560;2023-03-01T00:56:46;7.45;;;2.90;;
13457;SDS011;6801;53.018;11.560;2023-03-01T00:59:13;6.95;;;3.50;;
13457;SDS011;6801;53.018;11.560;2023-03-01T01:01:40;5.07;;;2.60;;
13457;SDS011;6801;53.018;11.560;2023-03-01T01:04:08;5.25;;;2.63;;
13457;SDS011;6801;53.018;11.560;2023-03-01T01:06:37;5.50;;;2.50;;
13457;SDS011;6801;53.018;11.560;2023-03-01T01:09:09;5.70;;;2.70;;
13457;SDS011;6801;53.018;11.560;2023-03-01T01:11:42;5.30;;;2.90;;
13457;SDS011;6801;53.018;11.560;2023-03-01T01:14:10;7.25;;;2.38;;
13457;SDS011;6801;53.018;11.560;2023-03-01T01:16:37;7.25;;;2.63;;
13457;SDS011;6801;53.018;11.560;2023-03-01T01:19:04;7.13;;;2.50;;
13457;SDS011;6801;53.018;11.560;2023-03-01T01:21:31;6.80;;;3.30;;
13457;SDS011;6801;53.018;11.560;2023-03-01T01:23:58;7.78;;;2.80;;
13457;SDS011;6801;53.018;11.560;2023-03-01T01:26:27;7.55;;;3.45;;
13457;SDS011;6801;53.018;11.560;2023-03-01T01:28:56;6.40;;;2.53;;
13457;SDS011;6801;53.018;11.560;2023-03-01T01:31:23;5.90;;;3.10;;
13457;SDS011;6801;53.018;11.560;2023-03-01T01:33:51;4.93;;;2.38;;
13457;SDS011;6801;53.018;11.560;2023-03-01T01:36:19;6.50;;;2.60;;
13457;SDS011;6801;53.018;11.560;2023-03-01T01:38:46;5.70;;;2.83;;
13457;SDS011;6801;53.018;11.560;2023-03-01T01:41:15;9.43;;;3.30;;
13457;SDS011;6801;53.018;11.560;2023-03-01T01:43:44;6.78;;;3.20;;
13457;SDS011;6801;53.018;11.560;2023-03-01T01:46:15;4.97;;;2.95;;
13457;SDS011;6801;53.018;11.560;2023-03-01T01:48:48;6.55;;;3.20;;
13457;SDS011;6801;53.018;11.560;2023-03-01T01:51:19;5.20;;;2.67;;
13457;SDS011;6801;53.018;11.560;2023-03-01T01:53:51;6.10;;;3.40;;
13457;SDS011;6801;53.018;11.560;2023-03-01T01:56:22;6.05;;;2.70;;
13457;SDS011;6801;53.018;11.560;2023-03-01T01:58:51;7.15;;;3.20;;
13457;SDS011;6801;53.018;11.560;2023-03-01T02:01:19;6.70;;;2.95;;
13457;SDS011;6801;53.018;11.560;2023-03-01T02:03:47;5.88;;;2.53;;
13457;SDS011;6801;53.018;11.560;2023-03-01T02:06:17;6.35;;;3.15;;
13457;SDS011;6801;53.018;11.560;2023-03-01T02:08:48;6.90;;;3.58;;
13457;SDS011;6801;53.018;11.560;2023-03-01T02:11:18;6.95;;;3.42;;
13457;SDS011;6801;53.018;11.560;2023-03-01T02:13:47;9.80;;;2.92;;
13457;SDS011;6801;53.018;11.560;2023-03-01T02:16:16;4.82;;;2.67;;
13457;SDS011;6801;53.018;11.560;2023-03-01T02:18:43;5.80;;;2.85;;
13457;SDS011;6801;53.018;11.560;2023-03-01T02:21:14;7.22;;;2.80;;
13457;SDS011;6801;53.018;11.560;2023-03-01T02:23:52;5.00;;;2.75;;
13457;SDS011;6801;53.018;11.560;2023-03-01T02:26:23;7.28;;;3.35;;
13457;SDS011;6801;53.018;11.560;2023-03-01T02:28:59;6.55;;;2.67;;
13457;SDS011;6801;53.018;11.560;2023-03-01T02:31:26;5.78;;;3.08;;
13457;SDS011;6801;53.018;11.560;2023-03-01T02:34:11;5.03;;;2.28;;
13457;SDS011;6801;53.018;11.560;2023-03-01T02:36:39;5.43;;;2.33;;
13457;SDS011;6801;53.018;11.560;2023-03-01T02:39:10;5.55;;;2.60;;
13457;SDS011;6801;53.018;11.560;2023-03-01T02:41:44;5.15;;;2.83;;
13457;SDS011;6801;53.018;11.560;2023-03-01T02:44:18;6.72;;;2.95;;
13457;SDS011;6801;53.018;11.560;2023-03-01T02:46:45;6.53;;;3.10;;
13457;SDS011;6801;53.018;11.560;2023-03-01T02:49:21;4.95;;;2.47;;
13457;SDS011;6801;53.018;11.560;2023-03-01T02:54:40;5.38;;;2.70;;
13457;SDS011;6801;53.018;11.560;2023-03-01T02:57:09;6.95;;;3.15;;
13457;SDS011;6801;53.018;11.560;2023-03-01T02:59:37;7.28;;;2.85;;
13457;SDS011;6801;53.018;11.560;2023-03-01T03:02:07;5.13;;;2.58;;
13457;SDS011;6801;53.018;11.560;2023-03-01T03:04:45;8.25;;;3.05;;
13457;SDS011;6801;53.018;11.560;2023-03-01T03:07:13;6.60;;;2.53;;
13457;SDS011;6801;53.018;11.560;2023-03-01T03:09:40;5.63;;;2.60;;
13457;SDS011;6801;53.018;11.560;2023-03-01T03:12:07;6.05;;;2.95;;
13457;SDS011;6801;53.018;11.560;2023-03-01T03:14:34;6.57;;;3.28;;
13457;SDS011;6801;53.018;11.560;2023-03-01T03:17:03;7.85;;;2.63;;
13457;SDS011;6801;53.018;11.560;2023-03-01T03:19:31;6.50;;;2.65;;
13457;SDS011;6801;53.018;11.560;2023-03-01T03:21:58;6.60;;;2.85;;
13457;SDS011;6801;53.018;11.560;2023-03-01T03:24:25;6.07;;;2.92;;
13457;SDS011;6801;53.018;11.560;2023-03-01T03:26:53;7.55;;;2.88;;
13457;SDS011;6801;53.018;11.560;2023-03-01T03:29:20;7.07;;;2.83;;
13457;SDS011;6801;53.018;11.560;2023-03-01T03:31:47;7.10;;;2.78;;
13457;SDS011;6801;53.018;11.560;2023-03-01T03:34:15;5.18;;;2.45;;
13457;SDS011;6801;53.018;11.560;2023-03-01T03:36:43;7.68;;;2.70;;
13457;SDS011;6801;53.018;11.560;2023-03-01T03:39:10;5.03;;;2.63;;
13457;SDS011;6801;53.018;11.560;2023-03-01T03:41:37;7.15;;;2.95;;
13457;SDS011;6801;53.018;11.560;2023-03-01T03:44:04;6.40;;;2.90;;
13457;SDS011;6801;53.018;11.560;2023-03-01T03:46:31;4.82;;;2.40;;
13457;SDS011;6801;53.018;11.560;2023-03-01T03:48:57;5.28;;;2.47;;
13457;SDS011;6801;53.018;11.560;2023-03-01T03:51:26;6.10;;;3.03;;
13457;SDS011;6801;53.018;11.560;2023-03-01T03:53:53;4.72;;;2.58;;
13457;SDS011;6801;53.018;11.560;2023-03-01T03:56:19;5.60;;;2.53;;
13457;SDS011;6801;53.018;11.560;2023-03-01T03:58:51;6.10;;;2.63;;
13457;SDS011;6801;53.018;11.560;2023-03-01T04:01:18;5.82;;;2.58;;
13457;SDS011;6801;53.018;11.560;2023-03-01T04:03:44;6.60;;;2.42;;
13457;SDS011;6801;53.018;11.560;2023-03-01T04:06:12;7.13;;;2.70;;
13457;SDS011;6801;53.018;11.560;2023-03-01T04:08:41;5.28;;;2.63;;
13457;SDS011;6801;53.018;11.560;2023-03-01T04:11:08;4.30;;;2.05;;
13457;SDS011;6801;53.018;11.560;2023-03-01T04:13:54;5.60;;;2.28;;
13457;SDS011;6801;53.018;11.560;2023-03-01T04:16:21;4.65;;;2.58;;
13457;SDS011;6801;53.018;11.560;2023-03-01T04:18:49;5.35;;;2.97;;
13457;SDS011;6801;53.018;11.560;2023-03-01T04:21:17;4.82;;;2.55;;
13457;SDS011;6801;53.018;11.560;2023-03-01T04:23:46;3.95;;;2.38;;
13457;SDS011;6801;53.018;11.560;2023-03-01T04:26:17;6.53;;;2.83;;
13457;SDS011;6801;53.018;11.560;2023-03-01T04:28:45;7.93;;;2.50;;
13457;SDS011;6801;53.018;11.560;2023-03-01T04:31:13;3.83;;;2.35;;
13457;SDS011;6801;53.018;11.560;2023-03-01T04:33:43;5.82;;;2.60;;
13457;SDS011;6801;53.018;11.560;2023-03-01T04:36:11;5.72;;;2.72;;
13457;SDS011;6801;53.018;11.560;2023-03-01T04:38:40;5.22;;;2.10;;
13457;SDS011;6801;53.018;11.560;2023-03-01T04:41:10;7.22;;;2.92;;
13457;SDS011;6801;53.018;11.560;2023-03-01T04:43:37;7.15;;;3.10;;
13457;SDS011;6801;53.018;11.560;2023-03-01T04:46:05;4.80;;;2.63;;
13457;SDS011;6801;53.018;11.560;2023-03-01T04:48:34;7.93;;;2.43;;
13457;SDS011;6801;53.018;11.560;2023-03-01T04:51:02;5.82;;;2.80;;
13457;SDS011;6801;53.018;11.560;2023-03-01T04:53:31;6.13;;;2.35;;
13457;SDS011;6801;53.018;11.560;2023-03-01T04:55:59;4.45;;;2.42;;
13457;SDS011;6801;53.018;11.560;2023-03-01T04:58:27;5.18;;;2.58;;
13457;SDS011;6801;53.018;11.560;2023-03-01T05:00:54;4.47;;;2.40;;
13457;SDS011;6801;53.018;11.560;2023-03-01T05:03:22;6.45;;;2.55;;
13457;SDS011;6801;53.018;11.560;2023-03-01T05:05:50;4.97;;;2.42;;
13457;SDS011;6801;53.018;11.560;2023-03-01T05:08:18;8.23;;;2.72;;
13457;SDS011;6801;53.018;11.560;2023-03-01T05:10:46;6.85;;;2.63;;
13457;SDS011;6801;53.018;11.560;2023-03-01T05:13:15;6.82;;;2.53;;
13457;SDS011;6801;53.018;11.560;2023-03-01T05:15:47;5.47;;;2.65;;
13457;SDS011;6801;53.018;11.560;2023-03-01T05:18:15;6.22;;;3.00;;
13457;SDS011;6801;53.018;11.560;2023-03-01T05:20:42;7.45;;;2.88;;
13457;SDS011;6801;53.018;11.560;2023-03-01T05:23:10;6.50;;;2.90;;
13457;SDS011;6801;53.018;11.560;2023-03-01T05:25:37;6.20;;;2.45;;
13457;SDS011;6801;53.018;11.560;2023-03-01T05:28:05;6.45;;;2.58;;
13457;SDS011;6801;53.018;11.560;2023-03-01T05:30:34;5.80;;;2.90;;
13457;SDS011;6801;53.018;11.560;2023-03-01T05:33:05;4.65;;;2.28;;
13457;SDS011;6801;53.018;11.560;2023-03-01T05:35:38;6.00;;;2.70;;
13457;SDS011;6801;53.018;11.560;2023-03-01T05:38:05;6.15;;;3.00;;
13457;SDS011;6801;53.018;11.560;2023-03-01T05:40:33;8.63;;;3.38;;
13457;SDS011;6801;53.018;11.560;2023-03-01T05:43:00;8.15;;;3.47;;
13457;SDS011;6801;53.018;11.560;2023-03-01T05:45:30;5.33;;;2.90;;
13457;SDS011;6801;53.018;11.560;2023-03-01T05:47:58;4.85;;;2.67;;
13457;SDS011;6801;53.018;11.560;2023-03-01T05:50:27;6.78;;;2.63;;
13457;SDS011;6801;53.018;11.560;2023-03-01T05:52:59;7.18;;;3.50;;
13457;SDS011;6801;53.018;11.560;2023-03-01T05:55:27;5.80;;;2.25;;
13457;SDS011;6801;53.018;11.560;2023-03-01T05:57:57;4.10;;;2.28;;
13457;SDS011;6801;53.018;11.560;2023-03-01T06:00:25;6.72;;;2.72;;
13457;SDS011;6801;53.018;11.560;2023-03-01T06:02:53;5.63;;;2.92;;
13457;SDS011;6801;53.018;11.560;2023-03-01T06:05:20;6.97;;;2.47;;
13457;SDS011;6801;53.018;11.560;2023-03-01T06:07:48;6.47;;;2.80;;
13457;SDS011;6801;53.018;11.560;2023-03-01T06:12:43;6.25;;;3.15;;
13457;SDS011;6801;53.018;11.560;2023-03-01T06:15:10;6.38;;;3.42;;
13457;SDS011;6801;53.018;11.560;2023-03-01T06:17:38;7.55;;;3.30;;
13457;SDS011;6801;53.018;11.560;2023-03-01T06:20:07;6.70;;;3.22;;
13457;SDS011;6801;53.018;11.560;2023-03-01T06:22:36;7.30;;;3.42;;
13457;SDS011;6801;53.018;11.560;2023-03-01T06:25:05;9.05;;;4.10;;
13457;SDS011;6801;53.018;11.560;2023-03-01T06:27:33;7.45;;;3.00;;
13457;SDS011;6801;53.018;11.560;2023-03-01T06:30:00;7.50;;;2.95;;
13457;SDS011;6801;53.018;11.560;2023-03-01T06:32:27;8.30;;;3.10;;
13457;SDS011;6801;53.018;11.560;2023-03-01T06:34:55;9.55;;;3.05;;
13457;SDS011;6801;53.018;11.560;2023-03-01T06:37:23;5.43;;;2.78;;
13457;SDS011;6801;53.018;11.560;2023-03-01T06:39:50;6.25;;;2.95;;
13457;SDS011;6801;53.018;11.560;2023-03-01T06:42:18;9.15;;;2.88;;
13457;SDS011;6801;53.018;11.560;2023-03-01T06:44:45;7.97;;;3.22;;
13457;SDS011;6801;53.018;11.560;2023-03-01T06:47:12;11.02;;;3.20;;
13457;SDS011;6801;53.018;11.560;2023-03-01T06:49:39;7.72;;;3.63;;
13457;SDS011;6801;53.018;11.560;2023-03-01T06:52:06;5.97;;;3.05;;
13457;SDS011;6801;53.018;11.560;2023-03-01T06:54:33;6.22;;;3.17;;
13457;SDS011;6801;53.018;11.560;2023-03-01T06:57:00;7.82;;;3.28;;
13457;SDS011;6801;53.018;11.560;2023-03-01T06:59:29;6.35;;;3.38;;
13457;SDS011;6801;53.018;11.560;2023-03-01T07:01:56;5.57;;;3.10;;
13457;SDS011;6801;53.018;11.560;2023-03-01T07:04:23;5.68;;;2.88;;
13457;SDS011;6801;53.018;11.560;2023-03-01T07:06:50;9.00;;;3.03;;
13457;SDS011;6801;53.018;11.560;2023-03-01T07:09:20;8.80;;;2.92;;
13457;SDS011;6801;53.018;11.560;2023-03-01T07:11:47;5.45;;;2.67;;
13457;SDS011;6801;53.018;11.560;2023-03-01T07:14:14;7.55;;;3.20;;
13457;SDS011;6801;53.018;11.560;2023-03-01T07:16:42;7.40;;;3.70;;
13457;SDS011;6801;53.018;11.560;2023-03-01T07:19:09;9.88;;;4.00;;
13457;SDS011;6801;53.018;11.560;2023-03-01T07:21:36;7.13;;;3.92;;
13457;SDS011;6801;53.018;11.560;2023-03-01T07:24:04;6.22;;;3.63;;
13457;SDS011;6801;53.018;11.560;2023-03-01T07:26:32;7.25;;;3.40;;
13457;SDS011;6801;53.018;11.560;2023-03-01T07:28:59;6.80;;;3.42;;
13457;SDS011;6801;53.018;11.560;2023-03-01T07:31:26;8.40;;;3.17;;
13457;SDS011;6801;53.018;11.560;2023-03-01T07:33:55;5.18;;;2.53;;
13457;SDS011;6801;53.018;11.560;2023-03-01T07:36:23;8.00;;;3.45;;
13457;SDS011;6801;53.018;11.560;2023-03-01T07:38:51;7.47;;;3.13;;
13457;SDS011;6801;53.018;11.560;2023-03-01T07:41:18;6.70;;;3.42;;
13457;SDS011;6801;53.018;11.560;2023-03-01T07:43:45;5.40;;;3.05;;
13457;SDS011;6801;53.018;11.560;2023-03-01T07:46:12;8.93;;;4.43;;
13457;SDS011;6801;53.018;11.560;2023-03-01T07:48:39;8.10;;;4.13;;
13457;SDS011;6801;53.018;11.560;2023-03-01T07:51:07;7.78;;;4.50;;
13457;SDS011;6801;53.018;11.560;2023-03-01T07:53:36;7.88;;;4.30;;
13457;SDS011;6801;53.018;11.560;2023-03-01T07:56:03;6.88;;;4.03;;
13457;SDS011;6801;53.018;11.560;2023-03-01T07:58:33;7.38;;;4.43;;
13457;SDS011;6801;53.018;11.560;2023-03-01T08:01:01;7.55;;;4.60;;
13457;SDS011;6801;53.018;11.560;2023-03-01T08:03:28;8.32;;;4.57;;
13457;SDS011;6801;53.018;11.560;2023-03-01T08:05:55;7.03;;;4.50;;
13457;SDS011;6801;53.018;11.560;2023-03-01T08:08:23;8.30;;;4.70;;
13457;SDS011;6801;53.018;11.560;2023-03-01T08:10:50;7.35;;;4.45;;
13457;SDS011;6801;53.018;11.560;2023-03-01T08:13:18;6.47;;;3.95;;
13457;SDS011;6801;53.018;11.560;2023-03-01T08:15:47;7.35;;;3.78;;
13457;SDS011;6801;53.018;11.560;2023-03-01T08:18:14;7.35;;;4.15;;
13457;SDS011;6801;53.018;11.560;2023-03-01T08:20:41;8.20;;;4.55;;
13457;SDS011;6801;53.018;11.560;2023-03-01T08:23:08;7.75;;;4.13;;
13457;SDS011;6801;53.018;11.560;2023-03-01T08:25:37;7.70;;;4.10;;
13457;SDS011;6801;53.018;11.560;2023-03-01T08:28:05;12.00;;;5.13;;
13457;SDS011;6801;53.018;11.560;2023-03-01T08:30:33;7.57;;;4.30;;
13457;SDS011;6801;53.018;11.560;2023-03-01T08:33:01;7.35;;;3.60;;
13457;SDS011;6801;53.018;11.560;2023-03-01T08:35:28;7.57;;;3.90;;
13457;SDS011;6801;53.018;11.560;2023-03-01T08:37:55;7.70;;;4.28;;
13457;SDS011;6801;53.018;11.560;2023-03-01T08:40:22;8.68;;;4.53;;
13457;SDS011;6801;53.018;11.560;2023-03-01T08:42:50;10.55;;;5.22;;
13457;SDS011;6801;53.018;11.560;2023-03-01T08:45:17;6.55;;;3.80;;
13457;SDS011;6801;53.018;11.560;2023-03-01T08:47:44;7.57;;;3.72;;
13457;SDS011;6801;53.018;11.560;2023-03-01T08:50:11;6.55;;;3.92;;
13457;SDS011;6801;53.018;11.560;2023-03-01T08:52:38;8.27;;;5.03;;
13457;SDS011;6801;53.018;11.560;2023-03-01T08:55:05;7.97;;;3.97;;
13457;SDS011;6801;53.018;11.560;2023-03-01T08:57:33;8.50;;;4.65;;
13457;SDS011;6801;53.018;11.560;2023-03-01T09:00:02;7.30;;;4.13;;
13457;SDS011;6801;53.018;11.560;2023-03-01T09:02:33;6.50;;;3.20;;
13457;SDS011;6801;53.018;11.560;2023-03-01T09:05:00;7.85;;;3.83;;
13457;SDS011;6801;53.018;11.560;2023-03-01T09:07:27;5.20;;;3.20;;
13457;SDS011;6801;53.018;11.560;2023-03-01T09:09:54;7.35;;;3.25;;
13457;SDS011;6801;53.018;11.560;2023-03-01T09:12:21;7.65;;;3.70;;
13457;SDS011;6801;53.018;11.560;2023-03-01T09:14:50;22.58;;;3.55;;
13457;SDS011;6801;53.018;11.560;2023-03-01T09:17:18;5.63;;;3.00;;
13457;SDS011;6801;53.018;11.560;2023-03-01T09:19:46;8.38;;;3.30;;
13457;SDS011;6801;53.018;11.560;2023-03-01T09:22:14;5.97;;;3.17;;
13457;SDS011;6801;53.018;11.560;2023-03-01T09:24:41;4.60;;;2.60;;
13457;SDS011;6801;53.018;11.560;2023-03-01T09:27:08;6.55;;;3.28;;
13457;SDS011;6801;53.018;11.560;2023-03-01T09:29:36;8.43;;;3.05;;
13457;SDS011;6801;53.018;11.560;2023-03-01T09:32:03;6.22;;;2.92;;
13457;SDS011;6801;53.018;11.560;2023-03-01T09:34:32;5.95;;;3.55;;
13457;SDS011;6801;53.018;11.560;2023-03-01T09:37:18;7.32;;;2.95;;
13457;SDS011;6801;53.018;11.560;2023-03-01T09:39:45;6.22;;;3.55;;
13457;SDS011;6801;53.018;11.560;2023-03-01T09:42:12;6.28;;;3.28;;
13457;SDS011;6801;53.018;11.560;2023-03-01T09:44:42;6.35;;;3.15;;
13457;SDS011;6801;53.018;11.560;2023-03-01T09:47:16;3.88;;;2.42;;
13457;SDS011;6801;53.018;11.560;2023-03-01T09:49:48;5.18;;;2.85;;
13457;SDS011;6801;53.018;11.560;2023-03-01T09:52:28;4.53;;;2.63;;
13457;SDS011;6801;53.018;11.560;2023-03-01T09:54:58;5.40;;;2.38;;
13457;SDS011;6801;53.018;11.560;2023-03-01T09:57:26;4.55;;;2.53;;
13457;SDS011;6801;53.018;11.560;2023-03-01T10:00:01;6.28;;;2.85;;
13457;SDS011;6801;53.018;11.560;2023-03-01T10:02:38;70.28;;;5.13;;
13457;SDS011;6801;53.018;11.560;2023-03-01T10:05:19;7.75;;;2.50;;
13457;SDS011;6801;53.018;11.560;2023-03-01T10:08:00;5.03;;;2.25;;
13457;SDS011;6801;53.018;11.560;2023-03-01T10:10:43;2.90;;;1.60;;
13457;SDS011;6801;53.018;11.560;2023-03-01T10:13:14;4.78;;;2.60;;
13457;SDS011;6801;53.018;11.560;2023-03-01T10:15:44;5.68;;;2.13;;
13457;SDS011;6801;53.018;11.560;2023-03-01T10:18:16;3.63;;;2.05;;
13457;SDS011;6801;53.018;11.560;2023-03-01T10:20:48;4.57;;;1.75;;
13457;SDS011;6801;53.018;11.560;2023-03-01T10:23:19;6.03;;;1.98;;
13457;SDS011;6801;53.018;11.560;2023-03-01T10:25:47;4.47;;;2.40;;
13457;SDS011;6801;53.018;11.560;2023-03-01T10:28:29;4.22;;;2.08;;
13457;SDS011;6801;53.018;11.560;2023-03-01T10:31:04;5.88;;;1.63;;
13457;SDS011;6801;53.018;11.560;2023-03-01T10:33:32;3.97;;;1.85;;
13457;SDS011;6801;53.018;11.560;2023-03-01T10:36:03;3.33;;;1.92;;
13457;SDS011;6801;53.018;11.560;2023-03-01T10:38:31;4.15;;;1.92;;
13457;SDS011;6801;53.018;11.560;2023-03-01T10:41:14;4.82;;;1.48;;
13457;SDS011;6801;53.018;11.560;2023-03-01T10:43:43;47.13;;;4.68;;
13457;SDS011;6801;53.018;11.560;2023-03-01T10:46:22;6.30;;;2.03;;
13457;SDS011;6801;53.018;11.560;2023-03-01T10:51:43;4.18;;;1.65;;
13457;SDS011;6801;53.018;11.560;2023-03-01T10:54:18;4.73;;;1.77;;
13457;SDS011;6801;53.018;11.560;2023-03-01T10:56:47;4.15;;;1.98;;
13457;SDS011;6801;53.018;11.560;2023-03-01T10:59:21;5.97;;;2.33;;
13457;SDS011;6801;53.018;11.560;2023-03-01T11:02:08;4.40;;;1.80;;
13457;SDS011;6801;53.018;11.560;2023-03-01T11:04:55;6.25;;;2.53;;
13457;SDS011;6801;53.018;11.560;2023-03-01T11:07:28;2.72;;;1.70;;
13457;SDS011;6801;53.018;11.560;2023-03-01T11:09:55;5.60;;;2.08;;
13457;SDS011;6801;53.018;11.560;2023-03-01T11:12:22;4.70;;;2.33;;
13457;SDS011;6801;53.018;11.560;2023-03-01T11:14:51;5.07;;;2.50;;
13457;SDS011;6801;53.018;11.560;2023-03-01T11:17:21;6.32;;;2.60;;
13457;SDS011;6801;53.018;11.560;2023-03-01T11:20:00;5.78;;;2.80;;
13457;SDS011;6801;53.018;11.560;2023-03-01T11:22:32;8.90;;;2.67;;
13457;SDS011;6801;53.018;11.560;2023-03-01T11:27:30;5.10;;;2.47;;
13457;SDS011;6801;53.018;11.560;2023-03-01T11:29:59;5.85;;;2.97;;
13457;SDS011;6801;53.018;11.560;2023-03-01T11:32:34;5.40;;;3.00;;
13457;SDS011;6801;53.018;11.560;2023-03-01T11:35:09;7.82;;;3.03;;
13457;SDS011;6801;53.018;11.560;2023-03-01T11:37:43;7.43;;;2.90;;
13457;SDS011;6801;53.018;11.560;2023-03-01T11:40:21;7.07;;;2.75;;
13457;SDS011;6801;53.018;11.560;2023-03-01T11:42:56;6.88;;;2.20;;
13457;SDS011;6801;53.018;11.560;2023-03-01T11:45:35;7.63;;;3.28;;
13457;SDS011;6801;53.018;11.560;2023-03-01T11:48:13;6.28;;;2.63;;
13457;SDS011;6801;53.018;11.560;2023-03-01T11:50:53;5.07;;;2.35;;
13457;SDS011;6801;53.018;11.560;2023-03-01T11:53:31;6.32;;;2.80;;
13457;SDS011;6801;53.018;11.560;2023-03-01T11:56:09;8.73;;;3.17;;
13457;SDS011;6801;53.018;11.560;2023-03-01T11:58:54;5.30;;;2.42;;
13457;SDS011;6801;53.018;11.560;2023-03-01T12:01:37;3.80;;;2.25;;
13457;SDS011;6801;53.018;11.560;2023-03-01T12:04:20;6.82;;;3.55;;
13457;SDS011;6801;53.018;11.560;2023-03-01T12:07:03;8.05;;;2.45;;
13457;SDS011;6801;53.018;11.560;2023-03-01T12:09:41;8.00;;;2.35;;
13457;SDS011;6801;53.018;11.560;2023-03-01T12:12:25;6.03;;;2.30;;
13457;SDS011;6801;53.018;11.560;2023-03-01T12:15:00;5.55;;;3.10;;
13457;SDS011;6801;53.018;11.560;2023-03-01T12:17:58;5.05;;;2.88;;
13457;SDS011;6801;53.018;11.560;2023-03-01T12:20:37;5.75;;;2.38;;
13457;SDS011;6801;53.018;11.560;2023-03-01T12:23:20;8.20;;;2.80;;
13457;SDS011;6801;53.018;11.560;2023-03-01T12:31:32;6.88;;;2.30;;
13457;SDS011;6801;53.018;11.560;2023-03-01T12:34:19;6.25;;;2.45;;
13457;SDS011;6801;53.018;11.560;2023-03-01T12:37:14;4.80;;;2.60;;
13457;SDS011;6801;53.018;11.560;2023-03-01T12:39:55;5.43;;;2.35;;
13457;SDS011;6801;53.018;11.560;2023-03-01T12:42:44;4.18;;;1.80;;
13457;SDS011;6801;53.018;11.560;2023-03-01T12:45:29;5.55;;;2.58;;
13457;SDS011;6801;53.018;11.560;2023-03-01T12:48:09;7.70;;;2.58;;
13457;SDS011;6801;53.018;11.560;2023-03-01T12:50:50;7.38;;;3.00;;
13457;SDS011;6801;53.018;11.560;2023-03-01T12:53:21;6.97;;;3.05;;
13457;SDS011;6801;53.018;11.560;2023-03-01T12:55:50;7.85;;;2.90;;
13457;SDS011;6801;53.018;11.560;2023-03-01T12:58:23;5.93;;;2.75;;
13457;SDS011;6801;53.018;11.560;2023-03-01T13:01:00;4.85;;;2.45;;
13457;SDS011;6801;53.018;11.560;2023-03-01T13:03:35;4.40;;;1.98;;
13457;SDS011;6801;53.018;11.560;2023-03-01T13:06:15;6.97;;;2.60;;
13457;SDS011;6801;53.018;11.560;2023-03-01T13:08:49;5.95;;;3.33;;
13457;SDS011;6801;53.018;11.560;2023-03-01T13:11:22;6.05;;;2.80;;
13457;SDS011;6801;53.018;11.560;2023-03-01T13:13:51;5.25;;;2.85;;
13457;SDS011;6801;53.018;11.560;2023-03-01T13:16:21;3.90;;;2.08;;
13457;SDS011;6801;53.018;11.560;2023-03-01T13:19:06;5.85;;;2.75;;
13457;SDS011;6801;53.018;11.560;2023-03-01T13:21:39;6.68;;;3.40;;
13457;SDS011;6801;53.018;11.560;2023-03-01T13:29:56;6.45;;;4.28;;
13457;SDS011;6801;53.018;11.560;2023-03-01T13:34:59;5.55;;;2.90;;
13457;SDS011;6801;53.018;11.560;2023-03-01T13:37:29;6.47;;;3.30;;
13457;SDS011;6801;53.018;11.560;2023-03-01T13:40:04;5.97;;;3.50;;
13457;SDS011;6801;53.018;11.560;2023-03-01T13:42:50;6.53;;;1.73;;
13457;SDS011;6801;53.018;11.560;2023-03-01T13:45:21;3.83;;;2.30;;
13457;SDS011;6801;53.018;11.560;2023-03-01T13:47:53;5.65;;;2.60;;
13457;SDS011;6801;53.018;11.560;2023-03-01T13:50:24;6.28;;;3.17;;
13457;SDS011;6801;53.018;11.560;2023-03-01T13:52:54;5.35;;;2.38;;
13457;SDS011;6801;53.018;11.560;2023-03-01T13:55:25;6.18;;;3.05;;
13457;SDS011;6801;53.018;11.560;2023-03-01T13:57:57;3.88;;;2.47;;
13457;SDS011;6801;53.018;11.560;2023-03-01T14:00:27;5.15;;;2.35;;
13457;SDS011;6801;53.018;11.560;2023-03-01T14:03:01;5.28;;;3.10;;
13457;SDS011;6801;53.018;11.560;2023-03-01T14:05:30;5.07;;;2.58;;
13457;SDS011;6801;53.018;11.560;2023-03-01T14:07:57;6.78;;;2.72;;
13457;SDS011;6801;53.018;11.560;2023-03-01T14:10:25;5.43;;;2.20;;
13457;SDS011;6801;53.018;11.560;2023-03-01T14:13:00;5.97;;;3.13;;
13457;SDS011;6801;53.018;11.560;2023-03-01T14:15:37;4.35;;;2.20;;
13457;SDS011;6801;53.018;11.560;2023-03-01T14:18:10;6.43;;;2.80;;
13457;SDS011;6801;53.018;11.560;2023-03-01T14:20:41;5.40;;;3.00;;
13457;SDS011;6801;53.018;11.560;2023-03-01T14:23:11;5.20;;;2.93;;
13457;SDS011;6801;53.018;11.560;2023-03-01T14:25:45;8.40;;;3.00;;
13457;SDS011;6801;53.018;11.560;2023-03-01T14:28:14;5.70;;;3.58;;
13457;SDS011;6801;53.018;11.560;2023-03-01T14:30:46;6.30;;;3.15;;
13457;SDS011;6801;53.018;11.560;2023-03-01T14:33:21;6.22;;;3.08;;
13457;SDS011;6801;53.018;11.560;2023-03-01T14:35:54;6.15;;;2.70;;
13457;SDS011;6801;53.018;11.560;2023-03-01T14:38:23;5.30;;;2.65;;
13457;SDS011;6801;53.018;11.560;2023-03-01T14:40:56;4.30;;;2.38;;
13457;SDS011;6801;53.018;11.560;2023-03-01T14:43:26;4.85;;;2.40;;
13457;SDS011;6801;53.018;11.560;2023-03-01T14:45:56;6.75;;;3.17;;
13457;SDS011;6801;53.018;11.560;2023-03-01T14:48:23;5.13;;;2.65;;
13457;SDS011;6801;53.018;11.560;2023-03-01T14:50:51;19.88;;;3.60;;
13457;SDS011;6801;53.018;11.560;2023-03-01T14:53:19;8.85;;;3.22;;
13457;SDS011;6801;53.018;11.560;2023-03-01T14:55:49;6.47;;;3.13;;
13457;SDS011;6801;53.018;11.560;2023-03-01T14:58:20;5.22;;;2.63;;
13457;SDS011;6801;53.018;11.560;2023-03-01T15:00:50;6.73;;;2.80;;
13457;SDS011;6801;53.018;11.560;2023-03-01T15:03:23;5.68;;;2.47;;
13457;SDS011;6801;53.018;11.560;2023-03-01T15:05:53;5.53;;;3.17;;
13457;SDS011;6801;53.018;11.560;2023-03-01T15:08:22;6.60;;;2.97;;
13457;SDS011;6801;53.018;11.560;2023-03-01T15:10:58;6.13;;;3.45;;
13457;SDS011;6801;53.018;11.560;2023-03-01T15:13:29;6.13;;;2.53;;
13457;SDS011;6801;53.018;11.560;2023-03-01T15:16:02;6.65;;;3.38;;
13457;SDS011;6801;53.018;11.560;2023-03-01T15:18:34;5.60;;;3.17;;
13457;SDS011;6801;53.018;11.560;2023-03-01T15:21:06;8.05;;;3.83;;
13457;SDS011;6801;53.018;11.560;2023-03-01T15:23:34;7.85;;;4.68;;
13457;SDS011;6801;53.018;11.560;2023-03-01T15:26:04;8.63;;;4.17;;
13457;SDS011;6801;53.018;11.560;2023-03-01T15:28:31;6.18;;;3.08;;
13457;SDS011;6801;53.018;11.560;2023-03-01T15:31:01;5.70;;;2.70;;